Time;durP1;ratioP1;P1;durP2;ratioP2;P2;SDS_P1;SDS_P2;PMS_P1;PMS_P2;Temp;Humidity;BMP_temperature;BMP_pressure;BME280_temperature;BME280_humidity;BME280_pressure;Samples;Min_cycle;Max_cycle;Signal;HPM_P1;HPM_P2
2020/12/09 00:00:52;;;;;;;11.67;5.93;;;-0.10;99.90;;;;;;5105681;28;20780;-78
2020/12/09 00:03:18;;;;;;;8.57;6.57;;;0.00;99.90;;;;;;5107097;28;20538;-79
2020/12/09 00:05:44;;;;;;;8.23;6.03;;;0.10;99.90;;;;;;5105031;28;20676;-79
2020/12/09 00:08:11;;;;;;;11.07;6.00;;;0.10;99.90;;;;;;5107519;28;21286;-79
2020/12/09 00:10:37;;;;;;;6.50;5.00;;;0.20;99.90;;;;;;5110720;28;20212;-79
2020/12/09 00:13:02;;;;;;;8.10;5.77;;;0.30;99.90;;;;;;5113509;28;20184;-78
2020/12/09 00:15:28;;;;;;;8.80;6.30;;;0.30;99.90;;;;;;5111486;28;20754;-80
2020/12/09 00:17:54;;;;;;;5.87;4.37;;;0.40;99.90;;;;;;5111553;28;20204;-78
2020/12/09 00:20:19;;;;;;;7.23;5.40;;;0.40;99.90;;;;;;5112802;28;20212;-77
2020/12/09 00:22:45;;;;;;;6.17;5.30;;;0.50;99.90;;;;;;5110908;28;20522;-79
2020/12/09 00:25:10;;;;;;;8.20;5.43;;;0.50;99.90;;;;;;5111389;28;20188;-79
2020/12/09 00:27:36;;;;;;;7.93;5.57;;;0.60;99.90;;;;;;5113162;28;20180;-78
2020/12/09 00:30:04;;;;;;;8.20;6.03;;;0.60;99.90;;;;;;5111575;28;20560;-78
2020/12/09 00:32:30;;;;;;;8.23;5.67;;;0.60;99.90;;;;;;5109832;28;20742;-79
2020/12/09 00:34:56;;;;;;;9.57;6.57;;;0.60;99.90;;;;;;5111447;28;20176;-78
2020/12/09 00:37:22;;;;;;;8.93;6.10;;;0.70;99.90;;;;;;5111782;28;20625;-78
2020/12/09 00:39:48;;;;;;;10.93;7.73;;;0.80;99.90;;;;;;5111439;28;20212;-79
2020/12/09 00:42:13;;;;;;;5.93;5.23;;;0.80;99.90;;;;;;5126699;27;20293;-80
2020/12/09 00:44:39;;;;;;;8.00;5.63;;;0.80;99.90;;;;;;5111640;28;20233;-79
2020/12/09 00:47:04;;;;;;;8.13;6.27;;;0.90;99.90;;;;;;5111596;28;20211;-77
2020/12/09 00:49:31;;;;;;;7.77;5.40;;;0.90;99.90;;;;;;5109799;28;20257;-78
2020/12/09 00:51:58;;;;;;;9.23;5.83;;;0.90;99.90;;;;;;5110671;28;20187;-79
2020/12/09 00:54:23;;;;;;;6.77;6.07;;;1.00;99.90;;;;;;5110963;28;20664;-78
2020/12/09 00:56:49;;;;;;;11.03;6.27;;;1.00;99.90;;;;;;5109164;28;20192;-78
2020/12/09 00:59:14;;;;;;;8.23;6.60;;;1.00;99.90;;;;;;5109865;28;20294;-78
2020/12/09 01:01:40;;;;;;;11.20;6.87;;;1.00;99.90;;;;;;5109675;28;20197;-79
2020/12/09 01:04:06;;;;;;;9.43;5.00;;;1.10;99.90;;;;;;5111474;28;20541;-80
2020/12/09 01:06:35;;;;;;;11.27;7.50;;;1.10;99.90;;;;;;5110173;28;20199;-78
2020/12/09 01:09:07;;;;;;;9.13;5.67;;;1.10;99.90;;;;;;5111960;28;20337;-78
2020/12/09 01:11:32;;;;;;;9.90;6.67;;;1.10;99.90;;;;;;5110933;28;20180;-79
2020/12/09 01:13:59;;;;;;;9.83;5.37;;;1.20;99.90;;;;;;5109132;28;20683;-78
2020/12/09 01:16:24;;;;;;;8.10;5.43;;;1.20;99.90;;;;;;5109958;28;20662;-78
2020/12/09 01:18:50;;;;;;;10.07;7.00;;;1.10;99.90;;;;;;5108971;28;20184;-78
2020/12/09 01:21:25;;;;;;;8.17;6.10;;;1.20;99.90;;;;;;5110581;28;20564;-80
2020/12/09 01:23:50;;;;;;;11.67;7.87;;;1.10;99.90;;;;;;5109867;28;20192;-79
2020/12/09 01:26:16;;;;;;;8.20;5.87;;;1.10;99.90;;;;;;5108401;28;20188;-78
2020/12/09 01:28:42;;;;;;;8.53;6.50;;;1.20;99.90;;;;;;5109862;28;20172;-77
2020/12/09 01:31:07;;;;;;;7.37;6.50;;;1.20;99.90;;;;;;5110342;28;20192;-77
2020/12/09 01:33:33;;;;;;;11.50;7.93;;;1.20;99.90;;;;;;5108369;28;20312;-80
2020/12/09 01:35:58;;;;;;;8.47;7.40;;;1.20;99.90;;;;;;5108645;28;20287;-80
2020/12/09 01:38:24;;;;;;;9.97;6.73;;;1.20;99.90;;;;;;5109894;28;20195;-78
2020/12/09 01:40:49;;;;;;;10.90;8.13;;;1.20;99.90;;;;;;5109095;28;20215;-79
2020/12/09 01:43:15;;;;;;;8.77;6.40;;;1.20;99.90;;;;;;5108771;28;20188;-78
2020/12/09 01:45:41;;;;;;;11.50;7.90;;;1.20;99.90;;;;;;5110354;28;20588;-78
2020/12/09 01:48:09;;;;;;;8.97;5.93;;;1.30;99.90;;;;;;5109645;28;20184;-80
2020/12/09 01:50:35;;;;;;;8.10;5.67;;;1.30;99.90;;;;;;5109701;28;20200;-80
2020/12/09 01:53:00;;;;;;;8.83;6.33;;;1.30;99.90;;;;;;5102173;28;20192;-78
2020/12/09 01:55:26;;;;;;;12.30;7.70;;;1.30;99.90;;;;;;5100842;27;20216;-79
2020/12/09 01:57:51;;;;;;;8.97;5.40;;;1.30;99.90;;;;;;5100586;27;20192;-77
2020/12/09 02:00:17;;;;;;;9.67;5.93;;;1.30;99.90;;;;;;5107205;28;20275;-77
2020/12/09 02:02:43;;;;;;;9.23;5.67;;;1.30;99.90;;;;;;5103501;28;20233;-78
2020/12/09 02:05:09;;;;;;;10.87;7.23;;;1.30;99.90;;;;;;5106508;28;20183;-79
2020/12/09 02:07:34;;;;;;;11.87;8.30;;;1.40;99.90;;;;;;5107441;28;20206;-79
2020/12/09 02:10:01;;;;;;;9.30;7.27;;;1.50;99.90;;;;;;5105081;28;20704;-78
2020/12/09 02:12:27;;;;;;;12.97;7.43;;;1.50;99.90;;;;;;5107750;28;20715;-78
2020/12/09 02:14:53;;;;;;;11.83;7.57;;;1.60;99.90;;;;;;5106925;28;20188;-77
2020/12/09 02:17:18;;;;;;;7.60;6.33;;;1.60;99.90;;;;;;5107149;28;20201;-78
2020/12/09 02:19:44;;;;;;;9.10;7.20;;;1.60;99.90;;;;;;5107367;28;20207;-78
2020/12/09 02:22:11;;;;;;;11.03;7.73;;;1.70;99.90;;;;;;5107943;28;20453;-79
2020/12/09 02:24:37;;;;;;;12.57;8.43;;;1.90;99.90;;;;;;5122347;28;20214;-78
2020/12/09 02:27:03;;;;;;;14.33;8.80;;;1.80;99.90;;;;;;5105401;28;20642;-78
2020/12/09 02:29:28;;;;;;;12.23;8.03;;;1.80;99.90;;;;;;5105009;28;20207;-78
2020/12/09 02:31:54;;;;;;;10.93;7.80;;;1.90;99.90;;;;;;5104799;28;20192;-78
2020/12/09 02:34:19;;;;;;;12.67;9.07;;;1.90;99.90;;;;;;5104858;28;20191;-77
2020/12/09 02:36:45;;;;;;;11.97;8.63;;;1.90;99.90;;;;;;5106073;28;20188;-77
2020/12/09 02:39:10;;;;;;;13.30;9.27;;;1.90;99.90;;;;;;5105446;28;20220;-77
2020/12/09 02:41:36;;;;;;;12.83;8.83;;;1.90;99.90;;;;;;5105893;28;20207;-78
2020/12/09 02:44:02;;;;;;;9.83;7.43;;;1.90;99.90;;;;;;5104925;28;20192;-78
2020/12/09 02:46:27;;;;;;;8.80;7.07;;;1.90;99.90;;;;;;5105943;28;21049;-78
2020/12/09 02:48:53;;;;;;;9.00;7.13;;;1.90;99.90;;;;;;5105956;28;20219;-79
2020/12/09 02:51:19;;;;;;;12.77;7.40;;;2.00;99.90;;;;;;5106255;28;20188;-78
2020/12/09 02:53:44;;;;;;;11.43;8.30;;;2.00;99.90;;;;;;5104450;28;20286;-78
2020/12/09 02:56:10;;;;;;;9.30;7.03;;;2.00;99.90;;;;;;5104743;28;20195;-77
2020/12/09 02:58:35;;;;;;;15.83;9.60;;;2.00;99.90;;;;;;5106235;28;20196;-78
2020/12/09 03:01:01;;;;;;;11.87;7.90;;;2.00;99.90;;;;;;5106518;28;20689;-77
2020/12/09 03:03:26;;;;;;;12.13;8.87;;;2.00;99.90;;;;;;5104956;28;20176;-78
2020/12/09 03:05:54;;;;;;;10.17;7.50;;;2.10;99.90;;;;;;5106193;28;20226;-78
2020/12/09 03:08:20;;;;;;;12.77;8.13;;;2.10;99.90;;;;;;5107472;28;20184;-77
2020/12/09 03:10:45;;;;;;;13.40;8.60;;;2.10;99.90;;;;;;5105708;28;20225;-78
2020/12/09 03:13:11;;;;;;;13.77;8.73;;;2.00;99.90;;;;;;5107690;28;20195;-77
2020/12/09 03:15:36;;;;;;;11.63;8.97;;;2.10;99.90;;;;;;5109161;28;20184;-77
2020/12/09 03:18:03;;;;;;;11.97;8.73;;;2.00;99.90;;;;;;5111190;28;20215;-78
2020/12/09 03:20:28;;;;;;;10.07;7.70;;;2.10;99.90;;;;;;5110472;28;20227;-78
2020/12/09 03:22:57;;;;;;;11.87;8.37;;;2.00;99.90;;;;;;5108054;28;20192;-78
2020/12/09 03:25:23;;;;;;;11.43;8.27;;;2.10;99.90;;;;;;5106396;28;20188;-78
2020/12/09 03:27:48;;;;;;;10.67;7.90;;;2.00;99.90;;;;;;5109782;28;20188;-79
2020/12/09 03:30:14;;;;;;;13.10;7.97;;;2.00;99.90;;;;;;5107061;28;20251;-78
2020/12/09 03:32:39;;;;;;;10.93;7.60;;;2.10;99.90;;;;;;5107157;28;20213;-78
2020/12/09 03:35:05;;;;;;;16.97;8.50;;;2.00;99.90;;;;;;5109038;28;20194;-79
2020/12/09 03:37:31;;;;;;;13.60;9.70;;;2.10;99.90;;;;;;5107464;28;20208;-80
2020/12/09 03:39:56;;;;;;;12.03;7.33;;;2.10;99.90;;;;;;5106983;28;20272;-79
2020/12/09 03:42:22;;;;;;;13.20;9.17;;;2.00;99.90;;;;;;5106738;28;20294;-78
2020/12/09 03:44:47;;;;;;;10.13;8.73;;;2.00;99.90;;;;;;5107755;28;20180;-79
2020/12/09 03:47:13;;;;;;;9.23;7.23;;;2.00;99.90;;;;;;5108816;28;20689;-78
2020/12/09 03:49:38;;;;;;;12.20;7.83;;;2.10;99.90;;;;;;5108751;28;20216;-77
2020/12/09 03:52:04;;;;;;;12.03;7.30;;;2.00;99.90;;;;;;5107615;28;20294;-78
2020/12/09 03:54:30;;;;;;;11.63;7.70;;;2.10;99.90;;;;;;5109227;28;20695;-78
2020/12/09 03:56:55;;;;;;;9.33;7.90;;;2.10;99.90;;;;;;5107680;28;20215;-78
2020/12/09 03:59:21;;;;;;;11.63;8.00;;;2.10;99.90;;;;;;5106544;28;20721;-79
2020/12/09 04:01:47;;;;;;;10.73;7.47;;;2.10;99.90;;;;;;5107866;28;20241;-79
2020/12/09 04:04:12;;;;;;;11.43;6.70;;;2.00;99.90;;;;;;5107995;28;20264;-78
2020/12/09 04:06:38;;;;;;;13.40;8.53;;;2.00;99.90;;;;;;5107703;28;20196;-79
2020/12/09 04:09:04;;;;;;;11.37;7.13;;;2.00;99.90;;;;;;5108972;28;20208;-78
2020/12/09 04:11:30;;;;;;;11.77;8.67;;;2.00;99.90;;;;;;5108884;28;20599;-79
2020/12/09 04:13:56;;;;;;;11.63;7.57;;;2.00;99.90;;;;;;5107606;28;20196;-78
2020/12/09 04:16:21;;;;;;;11.43;8.43;;;2.00;99.90;;;;;;5109413;28;20192;-78
2020/12/09 04:18:47;;;;;;;11.20;7.63;;;2.00;99.90;;;;;;5109444;28;20191;-78
2020/12/09 04:21:13;;;;;;;14.57;8.23;;;2.00;99.90;;;;;;5107111;28;20218;-79
2020/12/09 04:23:38;;;;;;;14.80;8.60;;;2.00;99.90;;;;;;5109116;28;20241;-78
2020/12/09 04:26:04;;;;;;;11.23;8.10;;;2.00;99.90;;;;;;5108913;28;20750;-78
2020/12/09 04:28:29;;;;;;;11.17;7.90;;;2.00;99.90;;;;;;5108485;28;20326;-79
2020/12/09 04:30:55;;;;;;;12.43;7.37;;;2.00;99.90;;;;;;5108785;28;20212;-79
2020/12/09 04:33:27;;;;;;;8.90;7.20;;;2.00;99.90;;;;;;5108864;28;20199;-78
2020/12/09 04:35:54;;;;;;;11.43;7.90;;;2.00;99.90;;;;;;5107967;28;20302;-78
2020/12/09 04:38:20;;;;;;;7.90;7.10;;;2.00;99.90;;;;;;5108361;28;20191;-78
2020/12/09 04:40:46;;;;;;;8.77;6.50;;;2.00;99.90;;;;;;5106251;28;20653;-79
2020/12/09 04:43:12;;;;;;;11.73;8.03;;;2.00;99.90;;;;;;5105415;28;20184;-78
2020/12/09 04:45:37;;;;;;;10.57;7.13;;;2.00;99.90;;;;;;5106337;28;20649;-77
2020/12/09 04:48:15;;;;;;;10.57;6.37;;;2.00;99.90;;;;;;5105982;28;20233;-77
2020/12/09 04:50:59;;;;;;;11.63;7.83;;;2.00;99.90;;;;;;5106702;28;20208;-77
2020/12/09 04:53:29;;;;;;;9.17;6.87;;;2.10;99.90;;;;;;5106930;28;20758;-77
2020/12/09 04:55:57;;;;;;;8.80;7.77;;;2.10;99.90;;;;;;5107577;28;20203;-79
2020/12/09 04:58:42;;;;;;;10.60;7.47;;;2.10;99.90;;;;;;5105814;28;20188;-78
2020/12/09 05:01:10;;;;;;;9.80;7.03;;;2.10;99.90;;;;;;5107219;28;20696;-78
2020/12/09 05:03:43;;;;;;;11.10;7.93;;;2.10;99.90;;;;;;5107900;28;20176;-78
2020/12/09 05:06:11;;;;;;;11.27;6.50;;;2.10;99.90;;;;;;5106937;28;20216;-78
2020/12/09 05:08:38;;;;;;;13.63;8.40;;;2.20;99.90;;;;;;5106249;28;20184;-78
2020/12/09 05:11:07;;;;;;;10.90;7.20;;;2.10;99.90;;;;;;5107394;28;20188;-78
2020/12/09 05:13:35;;;;;;;9.37;6.53;;;2.10;99.90;;;;;;5104841;28;20176;-77
2020/12/09 05:16:02;;;;;;;24.60;13.03;;;2.10;99.90;;;;;;5105369;28;20638;-78
2020/12/09 05:18:43;;;;;;;15.97;9.83;;;2.10;99.90;;;;;;5104934;28;20195;-78
2020/12/09 05:21:14;;;;;;;13.90;8.50;;;2.10;99.90;;;;;;5105386;28;20208;-80
2020/12/09 05:23:46;;;;;;;13.37;9.33;;;2.10;99.90;;;;;;5104653;28;20211;-81
2020/12/09 05:26:24;;;;;;;11.10;7.93;;;2.10;99.90;;;;;;5107032;28;20286;-79
2020/12/09 05:29:03;;;;;;;11.90;8.40;;;2.10;99.90;;;;;;5105661;28;20634;-77
2020/12/09 05:31:28;;;;;;;8.87;6.83;;;2.20;99.90;;;;;;5104484;28;20191;-78
2020/12/09 05:33:54;;;;;;;8.87;6.93;;;2.10;99.90;;;;;;5105127;28;20210;-79
2020/12/09 05:36:20;;;;;;;12.00;7.57;;;2.10;99.90;;;;;;5106004;28;20245;-78
2020/12/09 05:38:52;;;;;;;11.90;7.87;;;2.00;99.90;;;;;;5105554;28;20550;-79
2020/12/09 05:41:18;;;;;;;15.03;7.33;;;2.00;99.90;;;;;;5104060;28;20216;-78
2020/12/09 05:43:45;;;;;;;12.60;8.47;;;2.00;99.90;;;;;;5104841;28;20210;-79
2020/12/09 05:46:11;;;;;;;7.37;5.47;;;2.00;99.90;;;;;;5106203;28;20740;-78
2020/12/09 05:48:37;;;;;;;14.03;10.27;;;2.00;99.90;;;;;;5105669;28;20184;-80
2020/12/09 05:51:04;;;;;;;11.67;8.00;;;2.00;99.90;;;;;;5105658;28;20219;-78
2020/12/09 05:53:32;;;;;;;13.63;8.37;;;2.00;99.90;;;;;;5105800;28;20269;-79
2020/12/09 05:56:12;;;;;;;9.50;7.23;;;2.00;99.90;;;;;;5105729;28;20241;-78
2020/12/09 05:58:46;;;;;;;10.13;7.83;;;2.10;99.90;;;;;;5106108;28;20180;-78
2020/12/09 06:01:16;;;;;;;9.20;7.40;;;2.10;99.90;;;;;;5104366;28;20208;-79
2020/12/09 06:03:43;;;;;;;10.87;7.73;;;2.10;99.90;;;;;;5105839;28;20184;-79
2020/12/09 06:06:12;;;;;;;13.60;9.07;;;2.20;99.90;;;;;;5106134;28;20920;-79
2020/12/09 06:08:40;;;;;;;12.50;7.97;;;2.20;99.90;;;;;;5104349;28;20279;-78
2020/12/09 06:11:05;;;;;;;11.47;7.93;;;2.20;99.90;;;;;;5106104;28;20180;-79
2020/12/09 06:13:35;;;;;;;8.20;6.00;;;2.20;99.90;;;;;;5105480;28;20198;-77
2020/12/09 06:16:03;;;;;;;12.80;7.57;;;2.10;99.90;;;;;;5104034;28;20253;-78
2020/12/09 06:18:31;;;;;;;11.40;8.47;;;2.20;99.90;;;;;;5121042;27;21211;-77
2020/12/09 06:20:57;;;;;;;12.70;8.87;;;2.20;99.90;;;;;;5104824;28;20587;-78
2020/12/09 06:23:26;;;;;;;12.57;8.53;;;2.20;99.90;;;;;;5103906;28;20665;-79
2020/12/09 06:25:52;;;;;;;12.70;7.63;;;2.10;99.90;;;;;;5103578;28;21139;-79
2020/12/09 06:28:22;;;;;;;13.60;7.40;;;2.10;99.90;;;;;;5104319;28;20275;-79
2020/12/09 06:30:49;;;;;;;14.97;10.63;;;2.10;99.90;;;;;;5105374;28;20550;-78
2020/12/09 06:33:31;;;;;;;13.60;8.70;;;2.10;99.90;;;;;;5103405;28;20273;-78
2020/12/09 06:36:21;;;;;;;13.63;7.97;;;2.10;99.90;;;;;;5104024;28;20275;-78
2020/12/09 06:39:08;;;;;;;9.30;7.77;;;2.20;99.90;;;;;;5103650;28;20278;-80
2020/12/09 06:41:56;;;;;;;12.67;8.97;;;2.10;99.90;;;;;;5103618;28;20200;-80
2020/12/09 06:44:28;;;;;;;12.37;8.70;;;2.10;99.90;;;;;;5104573;28;20905;-80
2020/12/09 06:46:53;;;;;;;11.03;7.70;;;2.10;99.90;;;;;;5105188;28;20177;-79
2020/12/09 06:49:31;;;;;;;13.03;8.03;;;2.10;99.90;;;;;;5105853;28;20204;-79
2020/12/09 06:51:57;;;;;;;12.57;7.97;;;2.20;99.90;;;;;;5109760;28;20296;-80
2020/12/09 06:54:43;;;;;;;15.20;9.27;;;2.20;99.90;;;;;;5109051;28;20180;-80
2020/12/09 06:57:14;;;;;;;11.10;7.50;;;2.20;99.90;;;;;;5107966;28;20195;-78
2020/12/09 06:59:40;;;;;;;14.13;8.57;;;2.20;99.90;;;;;;5109179;28;20208;-79
2020/12/09 07:02:07;;;;;;;13.70;9.00;;;2.20;99.90;;;;;;5108553;28;20194;-79
2020/12/09 07:04:55;;;;;;;10.93;7.10;;;2.20;99.90;;;;;;5110972;28;20173;-79
2020/12/09 07:07:45;;;;;;;14.57;8.00;;;2.20;99.90;;;;;;5108627;28;20266;-79
2020/12/09 07:10:19;;;;;;;12.40;7.23;;;2.20;99.90;;;;;;5098582;28;20628;-80
2020/12/09 07:12:59;;;;;;;13.67;7.70;;;2.20;99.90;;;;;;5111344;28;20549;-78
2020/12/09 07:15:24;;;;;;;17.93;10.50;;;2.30;99.90;;;;;;5121105;27;20191;-74
2020/12/09 07:17:52;;;;;;;18.77;11.23;;;2.30;99.90;;;;;;5104766;28;20601;-79
2020/12/09 07:20:17;;;;;;;15.40;9.97;;;2.20;99.90;;;;;;5109640;28;20229;-79
2020/12/09 07:22:43;;;;;;;31.73;15.93;;;2.20;99.90;;;;;;5107242;28;20180;-78
2020/12/09 07:25:08;;;;;;;13.90;9.53;;;2.20;99.90;;;;;;5106367;28;20196;-79
2020/12/09 07:27:36;;;;;;;19.10;12.43;;;2.20;99.90;;;;;;5105053;28;20662;-78
2020/12/09 07:30:08;;;;;;;17.67;11.17;;;2.20;99.90;;;;;;5106473;27;20200;-78
2020/12/09 07:32:34;;;;;;;18.33;10.67;;;2.20;99.90;;;;;;5109137;28;21089;-78
2020/12/09 07:35:06;;;;;;;13.73;8.67;;;2.20;99.90;;;;;;5108207;28;20653;-79
2020/12/09 07:37:35;;;;;;;17.03;11.27;;;2.20;99.90;;;;;;5109241;28;20634;-78
2020/12/09 07:40:28;;;;;;;11.70;9.00;;;2.20;99.90;;;;;;5107157;27;20307;-79
2020/12/09 07:43:06;;;;;;;12.83;7.70;;;2.20;99.90;;;;;;5107057;28;20229;-78
2020/12/09 07:45:36;;;;;;;12.50;7.40;;;2.20;99.90;;;;;;5108967;28;20180;-79
2020/12/09 07:48:08;;;;;;;13.70;9.60;;;2.20;99.90;;;;;;5123997;27;20729;-79
2020/12/09 07:50:35;;;;;;;11.90;7.00;;;2.20;99.90;;;;;;5107359;28;20204;-78
2020/12/09 07:53:01;;;;;;;10.33;7.77;;;2.20;99.90;;;;;;5107847;28;20184;-79
2020/12/09 07:55:27;;;;;;;10.87;7.97;;;2.30;99.90;;;;;;5108217;27;20180;-78
2020/12/09 07:58:06;;;;;;;14.00;8.53;;;2.30;99.90;;;;;;5106760;28;20531;-78
2020/12/09 08:00:40;;;;;;;7.73;6.27;;;2.30;99.90;;;;;;5104708;28;20291;-79
2020/12/09 08:03:15;;;;;;;12.30;9.10;;;2.40;99.90;;;;;;5101603;28;20270;-78
2020/12/09 08:05:40;;;;;;;11.93;6.33;;;2.40;99.90;;;;;;5121832;27;20626;-77
2020/12/09 08:08:12;;;;;;;13.37;8.37;;;2.40;99.90;;;;;;5107096;28;20192;-77
2020/12/09 08:10:39;;;;;;;14.87;9.33;;;2.40;99.90;;;;;;5106726;28;20265;-77
2020/12/09 08:13:22;;;;;;;7.87;6.10;;;2.50;99.90;;;;;;5107040;28;20188;-77
2020/12/09 08:16:02;;;;;;;7.73;6.83;;;2.50;99.90;;;;;;5106150;28;20173;-77
2020/12/09 08:18:28;;;;;;;12.40;8.03;;;2.60;99.90;;;;;;5106514;28;20558;-77
2020/12/09 08:20:54;;;;;;;12.53;8.40;;;2.60;99.90;;;;;;5108554;28;20264;-77
2020/12/09 08:23:21;;;;;;;14.27;8.73;;;2.60;99.90;;;;;;5108621;28;20737;-76
2020/12/09 08:25:54;;;;;;;13.57;7.90;;;2.60;99.90;;;;;;5108112;27;20222;-76
2020/12/09 08:28:22;;;;;;;7.73;6.77;;;2.60;99.90;;;;;;5104630;28;20184;-76
2020/12/09 08:30:48;;;;;;;11.67;7.60;;;2.60;99.90;;;;;;5103801;28;20258;-74
2020/12/09 08:33:13;;;;;;;12.30;8.63;;;2.70;99.90;;;;;;5103879;28;20549;-75
2020/12/09 08:35:49;;;;;;;10.27;6.27;;;2.70;99.90;;;;;;5102560;28;20463;-74
2020/12/09 08:38:27;;;;;;;11.70;6.77;;;2.70;99.90;;;;;;5102591;28;20187;-74
2020/12/09 08:40:55;;;;;;;13.73;7.23;;;2.70;99.90;;;;;;5103453;28;20403;-77
2020/12/09 08:43:25;;;;;;;12.40;7.60;;;2.70;99.90;;;;;;5106593;28;20176;-77
2020/12/09 08:45:51;;;;;;;14.60;8.47;;;2.70;99.90;;;;;;5105455;28;20222;-77
2020/12/09 08:48:18;;;;;;;9.27;6.73;;;2.70;99.90;;;;;;5104473;28;20204;-75
2020/12/09 08:50:45;;;;;;;11.93;7.80;;;2.70;99.90;;;;;;5105688;28;20200;-77
2020/12/09 08:53:11;;;;;;;12.27;7.73;;;2.70;99.90;;;;;;5104945;28;20192;-77
2020/12/09 08:55:37;;;;;;;9.53;6.70;;;2.70;99.90;;;;;;5105008;28;20225;-77
2020/12/09 08:58:02;;;;;;;12.73;7.63;;;2.70;99.90;;;;;;5104678;28;20180;-77
2020/12/09 09:00:28;;;;;;;11.47;7.73;;;2.70;99.90;;;;;;5103589;28;20383;-77
2020/12/09 09:02:56;;;;;;;11.13;7.57;;;2.70;99.90;;;;;;5104833;28;20729;-76
2020/12/09 09:05:21;;;;;;;9.20;6.93;;;2.70;99.90;;;;;;5103950;28;20184;-77
2020/12/09 09:07:47;;;;;;;10.97;8.13;;;2.80;99.90;;;;;;5105513;28;20961;-74
2020/12/09 09:10:12;;;;;;;14.20;9.10;;;2.80;99.90;;;;;;5103089;28;20212;-74
2020/12/09 09:12:38;;;;;;;12.40;8.03;;;2.90;99.90;;;;;;5102927;28;20184;-75
2020/12/09 09:15:04;;;;;;;12.20;8.73;;;2.90;99.90;;;;;;5101892;28;20181;-74
2020/12/09 09:17:30;;;;;;;10.90;6.93;;;3.00;99.90;;;;;;5103098;28;20192;-79
2020/12/09 09:19:58;;;;;;;11.30;7.80;;;2.90;99.90;;;;;;5102789;28;20265;-78
2020/12/09 09:22:23;;;;;;;10.70;6.73;;;2.90;99.90;;;;;;5104318;28;20689;-77
2020/12/09 09:24:49;;;;;;;12.03;8.57;;;3.00;99.90;;;;;;5104369;28;20462;-80
2020/12/09 09:27:15;;;;;;;11.27;7.97;;;2.90;99.90;;;;;;5102589;28;20233;-79
2020/12/09 09:29:41;;;;;;;11.40;7.10;;;2.90;99.90;;;;;;5103908;28;20466;-78
2020/12/09 09:32:08;;;;;;;13.80;8.73;;;2.90;99.90;;;;;;5103400;28;20180;-78
2020/12/09 09:34:34;;;;;;;12.10;8.13;;;3.00;99.90;;;;;;5102428;28;20188;-79
2020/12/09 09:36:59;;;;;;;12.00;7.90;;;3.00;99.90;;;;;;5101790;28;20184;-77
2020/12/09 09:39:25;;;;;;;12.53;8.93;;;3.00;99.90;;;;;;5102705;28;20315;-78
2020/12/09 09:41:56;;;;;;;16.77;9.03;;;3.00;99.90;;;;;;5104758;28;20283;-78
2020/12/09 09:44:22;;;;;;;11.60;7.60;;;3.00;99.90;;;;;;5101607;28;20192;-77
2020/12/09 09:46:47;;;;;;;12.50;8.17;;;3.10;99.90;;;;;;5102562;28;20819;-79
2020/12/09 09:49:13;;;;;;;12.97;8.00;;;3.20;99.90;;;;;;5101623;28;20208;-79
2020/12/09 09:51:38;;;;;;;13.37;8.47;;;3.20;99.90;;;;;;5101803;28;20708;-78
2020/12/09 09:54:04;;;;;;;12.87;8.03;;;3.30;99.90;;;;;;5101461;28;20645;-79
2020/12/09 09:56:30;;;;;;;11.30;7.63;;;3.30;99.90;;;;;;5101676;28;20726;-79
2020/12/09 09:58:55;;;;;;;11.50;8.10;;;3.30;99.90;;;;;;5102140;28;20204;-78
2020/12/09 10:01:21;;;;;;;13.97;9.13;;;3.40;99.90;;;;;;5104012;28;20207;-78
2020/12/09 10:03:46;;;;;;;12.30;7.27;;;3.40;99.90;;;;;;5103134;28;20223;-81
2020/12/09 10:06:12;;;;;;;11.97;8.27;;;3.50;99.90;;;;;;5102039;28;20921;-79
2020/12/09 10:08:38;;;;;;;12.77;7.73;;;3.60;99.90;;;;;;5105313;28;20187;-79
2020/12/09 10:11:04;;;;;;;14.97;8.17;;;3.60;99.90;;;;;;5105323;28;20184;-76
2020/12/09 10:13:30;;;;;;;9.93;6.50;;;3.60;99.90;;;;;;5103974;28;20606;-80
2020/12/09 10:15:56;;;;;;;16.47;9.40;;;3.70;99.90;;;;;;5103683;28;20280;-80
2020/12/09 10:18:22;;;;;;;12.33;9.10;;;3.70;99.90;;;;;;5104241;28;20234;-80
2020/12/09 10:20:48;;;;;;;12.60;8.60;;;3.80;99.90;;;;;;5103330;28;20701;-80
2020/12/09 10:23:13;;;;;;;11.83;8.70;;;3.80;99.90;;;;;;5101252;28;20290;-79
2020/12/09 10:25:39;;;;;;;14.60;8.53;;;3.70;99.90;;;;;;5100968;28;20649;-80
2020/12/09 10:28:04;;;;;;;16.33;10.87;;;3.80;99.90;;;;;;5103519;28;20594;-79
2020/12/09 10:30:30;;;;;;;14.17;9.03;;;3.80;99.90;;;;;;5103040;28;20215;-77
2020/12/09 10:32:56;;;;;;;13.03;9.50;;;3.80;99.90;;;;;;5104635;28;20202;-78
2020/12/09 10:35:21;;;;;;;14.70;9.53;;;3.80;99.90;;;;;;5103577;28;20650;-81
2020/12/09 10:37:47;;;;;;;15.77;8.83;;;3.70;99.90;;;;;;5105304;28;20230;-81
2020/12/09 10:40:13;;;;;;;13.37;7.70;;;3.70;99.90;;;;;;5103557;28;20224;-83
2020/12/09 10:42:38;;;;;;;15.37;8.90;;;3.60;99.90;;;;;;5104871;28;20184;-77
2020/12/09 10:45:06;;;;;;;13.43;8.90;;;3.60;99.90;;;;;;5105052;28;20179;-80
2020/12/09 10:47:32;;;;;;;10.03;7.40;;;3.70;99.90;;;;;;5103087;28;20195;-80
2020/12/09 10:49:58;;;;;;;12.50;7.53;;;3.70;99.90;;;;;;5103768;28;20216;-79
2020/12/09 10:52:24;;;;;;;14.13;8.13;;;3.60;99.90;;;;;;5103962;28;20203;-81
2020/12/09 10:54:49;;;;;;;13.83;8.70;;;3.50;99.90;;;;;;5104768;28;20188;-79
2020/12/09 10:57:15;;;;;;;17.33;9.87;;;3.60;99.90;;;;;;5101874;28;20245;-78
2020/12/09 10:59:44;;;;;;;13.27;7.23;;;3.50;99.90;;;;;;5107480;28;20219;-79
2020/12/09 11:02:10;;;;;;;12.80;7.70;;;3.50;99.90;;;;;;5106532;28;20185;-80
2020/12/09 11:04:37;;;;;;;13.33;9.90;;;3.40;99.90;;;;;;5105577;28;20184;-80
2020/12/09 11:07:10;;;;;;;14.73;8.37;;;3.30;99.90;;;;;;5103217;28;20184;-82
2020/12/09 11:09:36;;;;;;;13.27;9.43;;;3.30;99.90;;;;;;5103489;28;20207;-79
2020/12/09 11:12:02;;;;;;;14.43;8.53;;;3.30;99.90;;;;;;5119847;28;20187;-81
2020/12/09 11:14:28;;;;;;;12.63;7.93;;;3.40;99.90;;;;;;5104719;28;20189;-82
2020/12/09 11:16:53;;;;;;;12.13;9.10;;;3.30;99.90;;;;;;5101418;28;20190;-78
2020/12/09 11:19:19;;;;;;;9.93;6.60;;;3.40;99.90;;;;;;5102755;28;20220;-79
2020/12/09 11:21:45;;;;;;;11.53;7.97;;;3.40;99.90;;;;;;5103119;28;20202;-80
2020/12/09 11:24:10;;;;;;;9.03;7.27;;;3.40;99.90;;;;;;5103614;28;20749;-82
2020/12/09 11:26:36;;;;;;;8.90;7.27;;;3.40;99.90;;;;;;5103078;28;20763;-82
2020/12/09 11:29:02;;;;;;;11.47;6.70;;;3.50;99.90;;;;;;5103047;28;20204;-78
2020/12/09 11:31:27;;;;;;;14.77;7.40;;;3.50;99.90;;;;;;5103446;28;20592;-80
2020/12/09 11:33:53;;;;;;;12.60;7.30;;;3.60;99.90;;;;;;5104586;28;20692;-78
2020/12/09 11:36:24;;;;;;;10.93;6.93;;;3.80;99.90;;;;;;5104292;28;20180;-82
2020/12/09 11:38:49;;;;;;;10.90;6.63;;;3.90;99.90;;;;;;5106905;28;20187;-81
2020/12/09 11:41:15;;;;;;;15.00;7.73;;;3.80;99.90;;;;;;5106503;28;20306;-80
2020/12/09 11:43:44;;;;;;;11.43;7.67;;;3.90;99.90;;;;;;5106424;28;20211;-81
2020/12/09 11:46:10;;;;;;;12.33;7.80;;;3.90;99.90;;;;;;5106316;28;20788;-82
2020/12/09 11:48:37;;;;;;;10.90;7.90;;;3.90;99.90;;;;;;5106469;28;20184;-79
2020/12/09 11:51:03;;;;;;;13.50;8.43;;;3.90;99.90;;;;;;5107657;28;20237;-81
2020/12/09 11:53:28;;;;;;;12.93;7.47;;;3.80;99.90;;;;;;5108099;28;20593;-78
2020/12/09 11:55:54;;;;;;;12.83;7.27;;;3.80;99.90;;;;;;5106684;28;20215;-78
2020/12/09 11:58:19;;;;;;;10.47;7.83;;;3.80;99.90;;;;;;5106516;28;20226;-81
2020/12/09 12:00:45;;;;;;;11.83;7.87;;;3.70;99.90;;;;;;5105619;28;20212;-80
2020/12/09 12:03:10;;;;;;;12.37;7.27;;;3.80;99.90;;;;;;5107556;28;20184;-79
2020/12/09 12:05:37;;;;;;;10.70;5.97;;;3.80;99.90;;;;;;5106410;28;20215;-81
2020/12/09 12:08:06;;;;;;;12.17;5.97;;;3.80;99.90;;;;;;5104842;28;20188;-79
2020/12/09 12:10:32;;;;;;;9.40;6.40;;;3.90;99.90;;;;;;5104686;28;20335;-81
2020/12/09 12:12:58;;;;;;;9.00;6.00;;;4.00;99.90;;;;;;5119946;27;20505;-83
2020/12/09 12:15:24;;;;;;;8.53;6.33;;;4.10;99.90;;;;;;5103822;28;20188;-83
2020/12/09 12:17:49;;;;;;;14.60;7.13;;;4.20;99.90;;;;;;5102224;28;20195;-79
2020/12/09 12:20:15;;;;;;;10.87;6.87;;;4.30;99.90;;;;;;5107375;28;20759;-80
2020/12/09 12:22:41;;;;;;;13.03;8.07;;;4.30;99.90;;;;;;5106577;28;20561;-80
2020/12/09 12:25:07;;;;;;;11.70;7.23;;;4.30;99.90;;;;;;5103222;28;20698;-78
2020/12/09 12:27:32;;;;;;;13.60;7.40;;;4.40;99.90;;;;;;5105985;28;20177;-81
2020/12/09 12:29:58;;;;;;;13.97;8.23;;;4.40;99.90;;;;;;5092561;22;20253;-70
2020/12/09 12:32:23;;;;;;;11.57;7.00;;;4.40;99.90;;;;;;5066601;28;20235;-70
2020/12/09 12:34:49;;;;;;;10.20;6.40;;;4.30;99.90;;;;;;5047852;28;20252;-69
2020/12/09 12:37:15;;;;;;;9.20;6.00;;;4.30;99.90;;;;;;5046875;28;20216;-69
2020/12/09 12:39:40;;;;;;;12.93;8.10;;;4.40;99.90;;;;;;5046098;28;20560;-70
2020/12/09 12:42:06;;;;;;;14.77;7.50;;;4.30;99.90;;;;;;5046347;28;20174;-70
2020/12/09 12:44:31;;;;;;;10.83;6.67;;;4.20;99.90;;;;;;5046322;28;20236;-70
2020/12/09 12:46:57;;;;;;;11.63;6.37;;;4.20;99.90;;;;;;5046059;28;20566;-70
2020/12/09 12:49:23;;;;;;;10.07;6.67;;;4.10;99.90;;;;;;5045393;28;20182;-69